createdAt,value
2023-03-26T00:02:07.863Z,76.30
2023-03-26T00:04:37.030Z,76.34
2023-03-26T00:07:05.942Z,76.84
2023-03-26T00:09:34.812Z,76.82
2023-03-26T00:12:03.912Z,77.01
2023-03-26T00:14:33.531Z,76.94
2023-03-26T00:17:02.603Z,77.08
2023-03-26T00:19:32.308Z,76.56
2023-03-26T00:22:03.638Z,76.77
2023-03-26T00:24:32.610Z,76.64
2023-03-26T00:27:02.034Z,77.03
2023-03-26T00:29:33.410Z,76.96
2023-03-26T00:32:02.450Z,77.24
2023-03-26T00:34:34.415Z,77.26
2023-03-26T00:37:03.359Z,77.57
2023-03-26T00:39:33.900Z,78.36
2023-03-26T00:42:07.076Z,78.72
2023-03-26T00:44:36.211Z,79.01
2023-03-26T00:47:05.145Z,78.61
2023-03-26T00:49:34.174Z,78.73
2023-03-26T00:52:03.667Z,78.64
2023-03-26T00:54:32.578Z,78.62
2023-03-26T00:57:01.555Z,78.57
2023-03-26T00:59:30.593Z,78.81
2023-03-26T01:04:32.186Z,78.67
2023-03-26T01:07:05.071Z,78.60
2023-03-26T01:09:37.648Z,78.49
2023-03-26T01:12:08.819Z,78.63
2023-03-26T01:14:38.254Z,78.75
2023-03-26T01:17:08.220Z,78.50
2023-03-26T01:20:26.720Z,78.36
2023-03-26T01:23:05.192Z,78.37
2023-03-26T01:25:42.388Z,78.21
2023-03-26T01:28:12.725Z,78.11
2023-03-26T01:31:01.484Z,78.18
2023-03-26T01:33:52.484Z,78.01
2023-03-26T01:36:32.528Z,77.20
2023-03-26T01:39:27.641Z,76.78
2023-03-26T01:42:15.511Z,76.68
2023-03-26T01:44:53.754Z,76.60
2023-03-26T01:47:23.226Z,76.50
2023-03-26T01:49:52.243Z,76.47
2023-03-26T01:52:26.147Z,75.98
2023-03-26T01:54:56.834Z,75.95
2023-03-26T01:58:03.841Z,75.77
2023-03-26T02:00:41.604Z,75.37
2023-03-26T02:03:27.988Z,75.53
2023-03-26T02:06:15.990Z,75.56
2023-03-26T02:09:06.647Z,75.33
2023-03-26T02:11:37.939Z,75.36
2023-03-26T02:14:08.566Z,75.37
2023-03-26T02:16:38.072Z,75.62
2023-03-26T02:19:15.831Z,75.41
2023-03-26T02:21:45.952Z,74.99
2023-03-26T02:24:14.908Z,75.22
2023-03-26T02:26:44.661Z,76.73
2023-03-26T02:29:19.371Z,77.19
2023-03-26T02:31:49.191Z,78.54
2023-03-26T02:34:18.184Z,79.79
2023-03-26T02:36:47.171Z,80.49
2023-03-26T02:39:16.152Z,80.59
2023-03-26T02:41:45.063Z,80.79
2023-03-26T02:44:14.367Z,81.02
2023-03-26T02:46:43.269Z,81.33
2023-03-26T02:49:12.232Z,82.21
2023-03-26T02:51:41.424Z,83.25
2023-03-26T02:54:10.525Z,83.85
2023-03-26T02:56:39.495Z,83.93
2023-03-26T02:59:08.398Z,83.95
2023-03-26T03:01:42.994Z,83.98
2023-03-26T03:04:13.013Z,84.25
2023-03-26T03:06:41.969Z,84.58
2023-03-26T03:09:11.801Z,84.71
2023-03-26T03:11:42.116Z,84.36
2023-03-26T03:14:11.016Z,83.89
2023-03-26T03:16:39.976Z,83.84
2023-03-26T03:19:08.967Z,84.17
2023-03-26T03:21:37.949Z,83.88
2023-03-26T03:24:07.263Z,83.97
2023-03-26T03:26:36.645Z,83.89
2023-03-26T03:29:05.593Z,83.95
2023-03-26T03:31:34.457Z,84.18
2023-03-26T03:34:03.654Z,83.52
2023-03-26T03:36:33.536Z,83.18
2023-03-26T03:39:02.773Z,82.97
2023-03-26T03:41:32.201Z,83.15
2023-03-26T03:44:01.791Z,83.18
2023-03-26T03:46:30.986Z,82.87
2023-03-26T03:48:59.948Z,82.47
2023-03-26T03:51:28.923Z,82.41
2023-03-26T03:53:57.934Z,82.10
2023-03-26T03:56:26.895Z,82.37
2023-03-26T03:58:58.427Z,82.45
2023-03-26T04:01:30.753Z,81.99
2023-03-26T04:04:00.222Z,82.25
2023-03-26T04:06:30.423Z,82.14
2023-03-26T04:08:59.392Z,81.29
2023-03-26T04:11:28.311Z,81.78
2023-03-26T04:13:57.214Z,81.28
2023-03-26T04:16:26.153Z,81.48
2023-03-26T04:18:55.470Z,80.85
2023-03-26T04:21:26.408Z,81.07
2023-03-26T04:23:55.305Z,80.72
2023-03-26T04:26:24.364Z,80.16
2023-03-26T04:28:56.680Z,79.94
2023-03-26T04:31:29.486Z,79.71
2023-03-26T04:34:07.862Z,79.66
2023-03-26T04:36:36.838Z,79.14
2023-03-26T04:39:06.960Z,79.36
2023-03-26T04:41:35.883Z,79.25
2023-03-26T04:44:05.517Z,78.95
2023-03-26T04:46:35.188Z,79.07
2023-03-26T04:49:04.228Z,78.96
2023-03-26T04:51:38.674Z,78.69
2023-03-26T04:54:08.610Z,78.56
2023-03-26T04:56:52.684Z,78.66
2023-03-26T04:59:26.730Z,78.84
2023-03-26T05:02:00.328Z,78.83
2023-03-26T05:04:34.785Z,78.95
2023-03-26T05:07:03.824Z,79.54
2023-03-26T05:09:33.086Z,79.39
2023-03-26T05:12:02.242Z,79.83
2023-03-26T05:14:31.235Z,80.71
2023-03-26T05:17:01.005Z,81.03
2023-03-26T05:19:29.882Z,81.10
2023-03-26T05:21:58.868Z,81.06
2023-03-26T05:24:28.867Z,81.33
2023-03-26T05:26:57.795Z,80.96
2023-03-26T05:29:27.241Z,80.84
2023-03-26T05:31:56.294Z,80.79
2023-03-26T05:34:27.339Z,80.55
2023-03-26T05:36:56.417Z,80.66
2023-03-26T05:39:26.942Z,80.73
2023-03-26T05:41:55.986Z,80.48
2023-03-26T05:44:25.012Z,80.19
2023-03-26T05:46:53.879Z,80.35
2023-03-26T05:49:22.803Z,79.78
2023-03-26T05:51:52.767Z,79.70
2023-03-26T05:54:23.292Z,79.74
2023-03-26T05:56:52.849Z,79.68
2023-03-26T05:59:21.903Z,79.38
2023-03-26T06:01:51.202Z,79.76
2023-03-26T06:04:21.558Z,79.50
2023-03-26T06:06:52.753Z,79.48
2023-03-26T06:09:21.967Z,79.46
2023-03-26T06:11:50.951Z,79.34
2023-03-26T06:14:19.848Z,78.88
2023-03-26T06:16:48.733Z,78.58
2023-03-26T06:19:17.668Z,78.93
2023-03-26T06:21:46.566Z,78.30
2023-03-26T06:24:16.680Z,77.74
2023-03-26T06:26:46.995Z,77.44
2023-03-26T06:29:16.183Z,77.71
2023-03-26T06:31:45.201Z,77.63
2023-03-26T06:34:14.211Z,77.42
2023-03-26T06:36:43.086Z,77.77
2023-03-26T06:39:11.977Z,77.64
2023-03-26T06:41:41.378Z,77.47
2023-03-26T06:44:11.406Z,77.69
2023-03-26T06:46:40.453Z,78.00
2023-03-26T06:49:09.457Z,77.98
2023-03-26T06:51:40.749Z,77.81
2023-03-26T06:54:09.961Z,77.80
2023-03-26T06:56:39.001Z,77.69
2023-03-26T06:59:07.951Z,77.50
2023-03-26T07:01:37.104Z,77.91
2023-03-26T07:04:06.178Z,77.01
2023-03-26T07:06:35.151Z,76.74
2023-03-26T07:09:04.336Z,77.02
2023-03-26T07:11:33.798Z,76.83
2023-03-26T07:14:02.724Z,76.55
2023-03-26T07:16:31.717Z,76.90
2023-03-26T07:19:00.682Z,76.20
2023-03-26T07:21:30.000Z,76.08
2023-03-26T07:23:59.256Z,75.73
2023-03-26T07:26:39.572Z,76.07
2023-03-26T07:29:18.178Z,75.19
2023-03-26T07:31:57.128Z,75.01
2023-03-26T07:35:01.603Z,75.41
2023-03-26T07:37:55.927Z,75.41
2023-03-26T07:40:46.501Z,75.60
2023-03-26T07:43:15.660Z,75.14
2023-03-26T07:45:45.233Z,75.68
2023-03-26T07:48:19.259Z,75.02
2023-03-26T07:50:48.492Z,74.43
2023-03-26T07:53:17.667Z,74.81
2023-03-26T07:56:13.092Z,74.89
2023-03-26T07:59:03.429Z,74.64
2023-03-26T08:01:51.077Z,74.56
2023-03-26T08:04:48.708Z,74.97
2023-03-26T08:07:35.086Z,76.70
2023-03-26T08:10:13.326Z,78.11
2023-03-26T08:13:04.097Z,79.31
2023-03-26T08:16:06.720Z,78.91
2023-03-26T08:18:45.832Z,78.74
2023-03-26T08:21:27.380Z,79.09
2023-03-26T08:24:00.800Z,77.85
2023-03-26T08:26:55.360Z,77.55
2023-03-26T08:29:46.767Z,78.09
2023-03-26T08:32:19.971Z,76.49
2023-03-26T08:34:49.782Z,76.16
2023-03-26T08:37:18.718Z,74.57
2023-03-26T08:39:47.643Z,73.16
2023-03-26T08:42:19.308Z,72.40
2023-03-26T08:45:25.620Z,70.88
2023-03-26T08:48:13.531Z,69.88
2023-03-26T08:51:01.652Z,67.16
2023-03-26T08:54:08.345Z,68.24
2023-03-26T08:56:53.256Z,68.53
2023-03-26T09:00:12.515Z,68.72
2023-03-26T09:02:44.407Z,68.28
2023-03-26T09:05:48.738Z,68.09
2023-03-26T09:08:33.150Z,67.22
2023-03-26T09:11:49.664Z,66.85
2023-03-26T09:14:39.918Z,65.68
2023-03-26T09:17:16.039Z,65.55
2023-03-26T09:20:08.978Z,65.52
2023-03-26T09:22:46.939Z,65.32
2023-03-26T09:25:47.703Z,64.50
2023-03-26T09:28:20.900Z,62.96
2023-03-26T09:31:17.593Z,61.74
2023-03-26T09:34:24.324Z,62.59
2023-03-26T09:36:57.419Z,62.31
2023-03-26T09:40:01.674Z,62.35
2023-03-26T09:43:01.074Z,63.60
2023-03-26T09:46:04.318Z,64.91
2023-03-26T09:49:04.559Z,65.02
2023-03-26T09:51:51.732Z,65.75
2023-03-26T09:54:48.609Z,66.47
2023-03-26T09:57:36.619Z,66.43
2023-03-26T10:00:34.544Z,65.93
2023-03-26T10:03:35.087Z,65.21
2023-03-26T10:06:20.485Z,63.41
2023-03-26T10:08:52.045Z,62.44
2023-03-26T10:11:33.702Z,62.78
2023-03-26T10:14:36.936Z,62.71
2023-03-26T10:17:57.142Z,66.04
2023-03-26T10:20:31.798Z,71.28
2023-03-26T10:23:12.703Z,73.05
2023-03-26T10:25:55.340Z,73.68
2023-03-26T10:28:31.965Z,74.85
2023-03-26T10:31:06.116Z,75.48
2023-03-26T10:34:00.163Z,76.43
2023-03-26T10:36:38.701Z,76.13
2023-03-26T10:39:36.167Z,75.71
2023-03-26T10:42:20.825Z,75.30
2023-03-26T10:45:09.374Z,74.64
2023-03-26T10:47:47.358Z,72.45
2023-03-26T10:50:32.135Z,72.13
2023-03-26T10:53:11.694Z,72.51
2023-03-26T10:55:46.801Z,71.75
2023-03-26T10:58:25.124Z,69.78
2023-03-26T11:01:03.426Z,71.04
2023-03-26T11:03:56.479Z,69.70
2023-03-26T11:06:38.973Z,67.20
2023-03-26T11:09:18.625Z,66.86
2023-03-26T11:12:01.414Z,66.00
2023-03-26T11:14:36.812Z,66.55
2023-03-26T11:17:05.736Z,67.60
2023-03-26T11:20:03.549Z,68.95
2023-03-26T11:22:54.654Z,69.60
2023-03-26T11:25:23.561Z,72.04
2023-03-26T11:28:23.641Z,71.77
2023-03-26T11:31:15.958Z,72.14
2023-03-26T11:33:50.588Z,70.34
2023-03-26T11:36:23.925Z,67.38
2023-03-26T11:38:57.836Z,65.23
2023-03-26T11:41:33.726Z,65.47
2023-03-26T11:44:13.586Z,63.54
2023-03-26T11:46:45.821Z,62.50
2023-03-26T11:49:19.786Z,62.20
2023-03-26T11:51:49.200Z,62.02
2023-03-26T11:54:18.379Z,62.66
2023-03-26T11:57:05.996Z,64.41
2023-03-26T11:59:59.390Z,64.27
2023-03-26T12:02:34.934Z,63.96
2023-03-26T12:05:10.854Z,64.00
2023-03-26T12:07:48.615Z,64.73
2023-03-26T12:10:22.685Z,64.70
2023-03-26T12:12:56.118Z,64.91
2023-03-26T12:15:26.379Z,64.03
2023-03-26T12:17:58.399Z,66.99
2023-03-26T12:20:33.634Z,71.10
2023-03-26T12:23:05.200Z,73.68
2023-03-26T12:25:37.221Z,76.02
2023-03-26T12:28:15.839Z,77.83
2023-03-26T12:31:04.309Z,78.40
2023-03-26T12:33:35.251Z,78.35
2023-03-26T12:36:27.649Z,77.30
2023-03-26T12:39:16.391Z,75.00
2023-03-26T12:44:46.550Z,74.94
2023-03-26T12:44:59.121Z,76.00
2023-03-26T12:47:58.514Z,75.29
2023-03-26T12:50:34.317Z,74.71
2023-03-26T12:53:49.377Z,74.37
2023-03-26T12:56:27.300Z,70.51
2023-03-26T12:59:02.010Z,70.58
2023-03-26T13:01:37.060Z,70.77
2023-03-26T13:04:34.425Z,69.81
2023-03-26T13:07:07.755Z,69.44
2023-03-26T13:10:08.698Z,68.05
2023-03-26T13:12:44.082Z,65.73
2023-03-26T13:15:23.892Z,64.29
2023-03-26T13:17:57.800Z,62.44
2023-03-26T13:20:43.437Z,62.08
2023-03-26T13:23:53.714Z,61.29
2023-03-26T13:26:55.909Z,58.35
2023-03-26T13:29:33.728Z,58.27
2023-03-26T13:32:30.449Z,57.89
2023-03-26T13:35:21.017Z,56.26
2023-03-26T13:38:05.104Z,56.52
2023-03-26T13:40:43.367Z,55.97
2023-03-26T13:43:34.003Z,57.01
2023-03-26T13:46:12.000Z,55.54
2023-03-26T13:49:13.690Z,57.34
2023-03-26T13:51:55.078Z,57.51
2023-03-26T13:54:54.944Z,57.32
2023-03-26T13:57:39.540Z,59.63
2023-03-26T14:00:17.426Z,58.63
2023-03-26T14:02:53.831Z,60.04
2023-03-26T14:05:51.546Z,60.01
2023-03-26T14:08:38.120Z,59.46
2023-03-26T14:11:15.906Z,60.26
2023-03-26T14:13:57.143Z,60.12
2023-03-26T14:16:34.643Z,60.76
2023-03-26T14:19:28.384Z,59.65
2023-03-26T14:22:19.366Z,59.21
2023-03-26T14:25:04.630Z,59.47
2023-03-26T14:28:06.136Z,58.83
2023-03-26T14:30:59.036Z,58.41
2023-03-26T14:33:34.302Z,59.25
2023-03-26T14:36:18.462Z,60.25
2023-03-26T14:38:47.345Z,59.68
2023-03-26T14:41:29.102Z,60.17
2023-03-26T14:44:48.363Z,59.24
2023-03-26T14:47:21.620Z,59.81
2023-03-26T14:50:09.261Z,60.20
2023-03-26T14:53:00.818Z,59.75
2023-03-26T14:55:49.112Z,61.39
2023-03-26T14:58:40.143Z,60.07
2023-03-26T15:01:21.367Z,59.08
2023-03-26T15:03:59.496Z,58.53
2023-03-26T15:06:53.567Z,59.12
2023-03-26T15:09:46.291Z,59.44
2023-03-26T15:12:44.482Z,59.90
2023-03-26T15:15:54.100Z,57.47
2023-03-26T15:19:02.348Z,57.35
2023-03-26T15:21:34.339Z,56.94
2023-03-26T15:24:24.980Z,57.74
2023-03-26T15:27:24.790Z,56.72
2023-03-26T15:30:44.956Z,57.85
2023-03-26T15:33:14.610Z,58.46
2023-03-26T15:36:03.414Z,57.07
2023-03-26T15:39:00.233Z,58.97
2023-03-26T15:42:00.433Z,59.07
2023-03-26T15:44:29.497Z,59.02
2023-03-26T15:47:29.292Z,57.60
2023-03-26T15:50:19.168Z,58.98
2023-03-26T15:52:57.044Z,59.27
2023-03-26T15:55:33.085Z,59.52
2023-03-26T15:58:26.483Z,57.79
2023-03-26T16:01:34.377Z,59.44
2023-03-26T16:04:18.314Z,61.16
2023-03-26T16:07:03.689Z,60.30
2023-03-26T16:09:51.473Z,61.61
2023-03-26T16:12:33.119Z,62.06
2023-03-26T16:15:09.527Z,62.37
2023-03-26T16:18:11.722Z,62.15
2023-03-26T16:20:50.905Z,62.52
2023-03-26T16:23:29.475Z,64.07
2023-03-26T16:26:13.056Z,62.74
2023-03-26T16:28:45.122Z,63.44
2023-03-26T16:31:36.156Z,64.34
2023-03-26T16:34:07.216Z,63.90
2023-03-26T16:36:49.999Z,64.58
2023-03-26T16:39:23.466Z,64.58
2023-03-26T16:42:06.248Z,63.59
2023-03-26T16:44:46.740Z,64.21
2023-03-26T16:47:27.548Z,65.01
2023-03-26T16:50:18.887Z,64.76
2023-03-26T16:53:02.100Z,65.19
2023-03-26T16:55:31.087Z,65.42
2023-03-26T16:58:10.477Z,68.10
2023-03-26T17:00:46.271Z,68.07
2023-03-26T17:03:43.627Z,68.80
2023-03-26T17:06:50.042Z,66.99
2023-03-26T17:09:34.473Z,68.68
2023-03-26T17:12:27.501Z,70.65
2023-03-26T17:15:31.016Z,71.57
2023-03-26T17:18:32.299Z,71.48
2023-03-26T17:21:46.121Z,72.57
2023-03-26T17:24:44.135Z,72.78
2023-03-26T17:27:47.181Z,73.67
2023-03-26T17:30:41.264Z,73.64
2023-03-26T17:33:23.392Z,73.55
2023-03-26T17:36:12.571Z,74.44
2023-03-26T17:38:47.781Z,74.41
2023-03-26T17:41:49.399Z,75.26
2023-03-26T17:44:37.093Z,75.52
2023-03-26T17:47:16.647Z,76.25
2023-03-26T17:49:51.366Z,76.80
2023-03-26T17:52:41.779Z,77.58
2023-03-26T17:55:21.280Z,77.56
2023-03-26T17:58:17.538Z,77.15
2023-03-26T18:01:12.461Z,76.60
2023-03-26T18:03:49.491Z,76.60
2023-03-26T18:06:34.300Z,76.21
2023-03-26T18:09:18.511Z,76.41
2023-03-26T18:12:12.540Z,77.04
2023-03-26T18:15:00.141Z,77.64
2023-03-26T18:17:32.524Z,76.97
2023-03-26T18:20:10.186Z,77.12
2023-03-26T18:22:39.360Z,78.42
2023-03-26T18:25:32.242Z,79.18
2023-03-26T18:28:04.629Z,79.02
2023-03-26T18:30:47.033Z,78.65
2023-03-26T18:33:16.108Z,78.10
2023-03-26T18:35:52.113Z,77.94
2023-03-26T18:38:35.531Z,78.47
2023-03-26T18:41:11.190Z,78.69
2023-03-26T18:43:44.564Z,78.68
2023-03-26T18:46:14.869Z,78.54
2023-03-26T18:48:44.338Z,78.85
2023-03-26T18:51:13.365Z,79.13
2023-03-26T18:53:50.848Z,79.11
2023-03-26T18:56:31.456Z,79.07
2023-03-26T18:59:02.792Z,79.15
2023-03-26T19:01:35.411Z,78.79
2023-03-26T19:04:06.903Z,78.60
2023-03-26T19:06:42.078Z,78.86
2023-03-26T19:09:24.257Z,79.52
2023-03-26T19:12:32.689Z,79.65
2023-03-26T19:15:09.969Z,79.67
2023-03-26T19:17:42.993Z,79.60
2023-03-26T19:20:24.877Z,79.76
2023-03-26T19:22:55.433Z,80.25
2023-03-26T19:25:29.863Z,79.99
2023-03-26T19:27:59.306Z,79.43
2023-03-26T19:30:40.189Z,79.42
2023-03-26T19:33:20.829Z,79.75
2023-03-26T19:36:03.445Z,79.87
2023-03-26T19:38:44.462Z,80.04
2023-03-26T19:41:21.845Z,80.26
2023-03-26T19:43:56.176Z,80.43
2023-03-26T19:46:26.964Z,80.84
2023-03-26T19:48:58.114Z,80.86
2023-03-26T19:51:36.174Z,80.79
2023-03-26T19:54:16.081Z,80.64
2023-03-26T19:56:45.255Z,80.35
2023-03-26T19:59:15.333Z,79.71
2023-03-26T20:01:44.261Z,79.40
2023-03-26T20:04:13.768Z,79.03
2023-03-26T20:06:44.311Z,78.28
2023-03-26T20:09:14.203Z,78.40
2023-03-26T20:11:43.359Z,78.35
2023-03-26T20:14:16.662Z,79.04
2023-03-26T20:16:46.205Z,79.22
2023-03-26T20:19:15.730Z,79.30
2023-03-26T20:21:45.046Z,79.48
2023-03-26T20:24:17.682Z,79.49
2023-03-26T20:26:47.042Z,79.22
2023-03-26T20:29:16.536Z,78.82
2023-03-26T20:31:46.230Z,78.88
2023-03-26T20:34:24.312Z,79.43
2023-03-26T20:37:01.303Z,80.30
2023-03-26T20:39:30.988Z,80.56
2023-03-26T20:41:59.901Z,80.61
2023-03-26T20:44:29.099Z,80.97
2023-03-26T20:46:59.123Z,80.91
2023-03-26T20:49:29.371Z,81.12
2023-03-26T20:51:59.629Z,81.21
2023-03-26T20:54:30.404Z,80.96
2023-03-26T20:56:59.397Z,80.98
2023-03-26T20:59:29.992Z,81.12
2023-03-26T21:01:59.469Z,81.08
2023-03-26T21:04:29.016Z,81.00
2023-03-26T21:07:07.142Z,81.36
2023-03-26T21:09:40.895Z,81.17
2023-03-26T21:12:17.364Z,81.25
2023-03-26T21:14:46.852Z,81.64
2023-03-26T21:17:18.956Z,81.98
2023-03-26T21:19:49.348Z,81.97
2023-03-26T21:22:46.383Z,81.99
2023-03-26T21:25:25.803Z,81.70
2023-03-26T21:28:17.351Z,81.78
2023-03-26T21:30:48.408Z,82.02
2023-03-26T21:33:17.777Z,82.29
2023-03-26T21:35:53.151Z,82.40
2023-03-26T21:38:23.922Z,81.95
2023-03-26T21:40:58.859Z,81.43
2023-03-26T21:43:28.000Z,81.42
2023-03-26T21:45:58.243Z,81.59
2023-03-26T21:48:29.185Z,81.65
2023-03-26T21:51:02.508Z,81.79
2023-03-26T21:53:32.067Z,82.22
2023-03-26T21:56:18.113Z,82.50
2023-03-26T21:59:05.809Z,83.13
2023-03-26T22:01:43.926Z,83.17
2023-03-26T22:04:24.804Z,82.61
2023-03-26T22:07:01.280Z,82.94
2023-03-26T22:09:36.321Z,83.14
2023-03-26T22:12:05.878Z,83.63
2023-03-26T22:14:35.464Z,84.19
2023-03-26T22:17:05.359Z,84.82
2023-03-26T22:19:34.749Z,85.17
2023-03-26T22:22:03.663Z,84.69
2023-03-26T22:24:32.980Z,84.26
2023-03-26T22:27:02.023Z,84.04
2023-03-26T22:29:30.934Z,83.68
2023-03-26T22:31:59.846Z,83.84
2023-03-26T22:34:29.362Z,83.86
2023-03-26T22:36:58.357Z,83.47
2023-03-26T22:39:27.637Z,83.15
2023-03-26T22:41:56.654Z,82.90
2023-03-26T22:44:25.569Z,82.64
2023-03-26T22:46:54.660Z,82.81
2023-03-26T22:49:27.500Z,82.68
2023-03-26T22:51:57.214Z,82.69
2023-03-26T22:54:26.378Z,83.01
2023-03-26T22:56:55.620Z,83.37
2023-03-26T22:59:24.933Z,82.84
2023-03-26T23:01:54.383Z,82.63
2023-03-26T23:04:30.865Z,82.51
2023-03-26T23:07:01.392Z,82.36
2023-03-26T23:09:30.417Z,81.91
2023-03-26T23:11:59.372Z,81.81
2023-03-26T23:14:28.838Z,81.65
2023-03-26T23:16:58.274Z,81.82
2023-03-26T23:19:27.374Z,82.02
2023-03-26T23:21:56.778Z,82.46
2023-03-26T23:24:30.210Z,82.20
2023-03-26T23:26:59.176Z,82.05
2023-03-26T23:29:30.194Z,81.84
2023-03-26T23:32:00.100Z,81.40
2023-03-26T23:34:28.967Z,81.05
2023-03-26T23:36:58.259Z,80.94
2023-03-26T23:39:28.699Z,81.48
2023-03-26T23:41:57.635Z,81.33
2023-03-26T23:44:29.492Z,81.99
2023-03-26T23:47:00.659Z,82.39
2023-03-26T23:49:29.586Z,82.17
2023-03-26T23:51:58.476Z,81.73
2023-03-26T23:54:27.508Z,81.77
2023-03-26T23:56:57.859Z,81.62
2023-03-26T23:59:26.771Z,81.88
